Portada
METAR-TAF:

METAR-TAF

Aeroports :

Inukjuak, Quebec, Canadà

latitud: 58-28N, longitud: 078-05W, altitud: 25 m

Observació

L'informe es va fer fa 51 minuts, a les 14:00 UTC
Vent 6 kt del Sud
Temperatura 11°C
Humitat 71%
Pressió 1022 hPa
Visibilitat: 14.5 km
Cel clar

METAR: CYPH 171400Z AUTO 19006KT 9SM CLR 11/06 A3018 RMK SLP222

Hora: 10:51 (14:51 UTC)

Pronòstic

L'informe es va fer fa 3 hores i 13 minuts, a les 11:38 UTC
Pronòstic vàlid del 17 a les 12 UTC al 17 a les 24 UTC
Vent 5 kt del Sud
Visibilitat: 10 km
Cel ennuvolat a una alçada de 12000 ft
Evolucionant progressivament
l' 17 a les 13 UTC al 17 a les 15 UTC
Vent 12 kt del Sud/Sud-Est
A partir de les 17 a les 1500 UTC
Vent 12 kt del Sud/Sud-Est
Visibilitat: 10 km
Cel clar

TAF: CYPH 171138Z 1712/1724 18005KT P6SM BKN120 BECMG 1713/1715 16012KT FM171500 16012KT P6SM SKC RMK FCST BASED ON AUTO OBS. NXT FCST BY 171800Z

Observacions i pronòstics meteorològics de més de 4000 aeroports (METAR i TAF).

Les estacions disponibles són els punts grocs i vermells al mapa.

Posi el ratolí al punt desitjat per veure el nom de l'estació.

Feu clic per veure les observacions i els pronòstics meteorològics.

Per canviar el mapa: feu clic els botons verds amb una creu de color negre per apropar; al botó verd amb un guió per allunyar la imatge; o en les fletxes verdes per a mapes adjacents.


METAR-TAF: